sensor_id;sensor_type;location;lat;lon;timestamp;P1;durP1;ratioP1;P2;durP2;ratioP2
12042;SDS011;6082;49.306;12.862;2023-03-23T00:02:28;3.97;;;2.60;;
12042;SDS011;6082;49.306;12.862;2023-03-23T00:04:57;3.10;;;2.43;;
12042;SDS011;6082;49.306;12.862;2023-03-23T00:07:25;4.40;;;2.60;;
12042;SDS011;6082;49.306;12.862;2023-03-23T00:09:53;4.60;;;2.80;;
12042;SDS011;6082;49.306;12.862;2023-03-23T00:12:20;3.43;;;2.33;;
12042;SDS011;6082;49.306;12.862;2023-03-23T00:14:53;5.17;;;2.93;;
12042;SDS011;6082;49.306;12.862;2023-03-23T00:17:19;3.37;;;2.47;;
12042;SDS011;6082;49.306;12.862;2023-03-23T00:19:46;3.13;;;2.33;;
12042;SDS011;6082;49.306;12.862;2023-03-23T00:22:15;3.93;;;2.50;;
12042;SDS011;6082;49.306;12.862;2023-03-23T00:24:42;3.73;;;2.30;;
12042;SDS011;6082;49.306;12.862;2023-03-23T00:27:09;3.23;;;2.53;;
12042;SDS011;6082;49.306;12.862;2023-03-23T00:29:37;4.40;;;2.73;;
12042;SDS011;6082;49.306;12.862;2023-03-23T00:32:05;4.50;;;2.37;;
12042;SDS011;6082;49.306;12.862;2023-03-23T00:34:31;3.80;;;2.43;;
12042;SDS011;6082;49.306;12.862;2023-03-23T00:36:57;3.60;;;2.37;;
12042;SDS011;6082;49.306;12.862;2023-03-23T00:39:24;3.87;;;2.47;;
12042;SDS011;6082;49.306;12.862;2023-03-23T00:41:51;3.40;;;2.83;;
12042;SDS011;6082;49.306;12.862;2023-03-23T00:44:18;3.33;;;2.40;;
12042;SDS011;6082;49.306;12.862;2023-03-23T00:46:48;4.10;;;2.80;;
12042;SDS011;6082;49.306;12.862;2023-03-23T00:49:20;3.33;;;2.53;;
12042;SDS011;6082;49.306;12.862;2023-03-23T00:51:52;3.63;;;2.60;;
12042;SDS011;6082;49.306;12.862;2023-03-23T00:54:18;3.47;;;2.63;;
12042;SDS011;6082;49.306;12.862;2023-03-23T00:56:45;5.57;;;2.77;;
12042;SDS011;6082;49.306;12.862;2023-03-23T00:59:12;2.97;;;2.40;;
12042;SDS011;6082;49.306;12.862;2023-03-23T01:01:38;4.67;;;2.83;;
12042;SDS011;6082;49.306;12.862;2023-03-23T01:04:05;4.50;;;2.83;;
12042;SDS011;6082;49.306;12.862;2023-03-23T01:06:31;4.07;;;2.73;;
12042;SDS011;6082;49.306;12.862;2023-03-23T01:09:00;3.60;;;2.60;;
12042;SDS011;6082;49.306;12.862;2023-03-23T01:11:28;3.83;;;2.83;;
12042;SDS011;6082;49.306;12.862;2023-03-23T01:13:54;3.90;;;2.40;;
12042;SDS011;6082;49.306;12.862;2023-03-23T01:16:21;3.37;;;2.33;;
12042;SDS011;6082;49.306;12.862;2023-03-23T01:18:47;3.87;;;2.50;;
12042;SDS011;6082;49.306;12.862;2023-03-23T01:21:14;4.73;;;2.93;;
12042;SDS011;6082;49.306;12.862;2023-03-23T01:23:41;3.70;;;2.60;;
12042;SDS011;6082;49.306;12.862;2023-03-23T01:26:08;3.00;;;2.60;;
12042;SDS011;6082;49.306;12.862;2023-03-23T01:28:35;3.37;;;2.50;;
12042;SDS011;6082;49.306;12.862;2023-03-23T01:31:05;3.27;;;2.40;;
12042;SDS011;6082;49.306;12.862;2023-03-23T01:33:32;3.00;;;2.33;;
12042;SDS011;6082;49.306;12.862;2023-03-23T01:36:02;4.67;;;2.37;;
12042;SDS011;6082;49.306;12.862;2023-03-23T01:38:28;3.67;;;2.37;;
12042;SDS011;6082;49.306;12.862;2023-03-23T01:40:55;5.90;;;2.40;;
12042;SDS011;6082;49.306;12.862;2023-03-23T01:43:22;3.50;;;2.50;;
12042;SDS011;6082;49.306;12.862;2023-03-23T01:45:48;3.33;;;2.53;;
12042;SDS011;6082;49.306;12.862;2023-03-23T01:53:23;3.40;;;2.60;;
12042;SDS011;6082;49.306;12.862;2023-03-23T01:55:50;3.83;;;2.50;;
12042;SDS011;6082;49.306;12.862;2023-03-23T01:58:19;3.63;;;2.37;;
12042;SDS011;6082;49.306;12.862;2023-03-23T02:00:47;4.63;;;2.80;;
12042;SDS011;6082;49.306;12.862;2023-03-23T02:03:14;4.80;;;2.67;;
12042;SDS011;6082;49.306;12.862;2023-03-23T02:05:42;2.93;;;2.50;;
12042;SDS011;6082;49.306;12.862;2023-03-23T02:08:08;4.73;;;2.30;;
12042;SDS011;6082;49.306;12.862;2023-03-23T02:10:35;5.43;;;2.40;;
12042;SDS011;6082;49.306;12.862;2023-03-23T02:13:03;2.40;;;2.20;;
12042;SDS011;6082;49.306;12.862;2023-03-23T02:15:33;4.77;;;2.50;;
12042;SDS011;6082;49.306;12.862;2023-03-23T02:20:42;3.20;;;2.43;;
12042;SDS011;6082;49.306;12.862;2023-03-23T02:23:33;3.97;;;2.73;;
12042;SDS011;6082;49.306;12.862;2023-03-23T02:26:17;2.90;;;2.40;;
12042;SDS011;6082;49.306;12.862;2023-03-23T02:29:02;3.57;;;2.60;;
12042;SDS011;6082;49.306;12.862;2023-03-23T02:34:20;3.37;;;2.57;;
12042;SDS011;6082;49.306;12.862;2023-03-23T02:36:52;3.47;;;2.30;;
12042;SDS011;6082;49.306;12.862;2023-03-23T02:39:24;3.77;;;2.67;;
12042;SDS011;6082;49.306;12.862;2023-03-23T02:41:52;4.27;;;2.40;;
12042;SDS011;6082;49.306;12.862;2023-03-23T02:44:20;3.43;;;2.47;;
12042;SDS011;6082;49.306;12.862;2023-03-23T02:46:47;4.20;;;2.50;;
12042;SDS011;6082;49.306;12.862;2023-03-23T02:49:14;4.10;;;2.40;;
12042;SDS011;6082;49.306;12.862;2023-03-23T02:51:41;3.73;;;2.60;;
12042;SDS011;6082;49.306;12.862;2023-03-23T02:54:09;3.83;;;2.50;;
12042;SDS011;6082;49.306;12.862;2023-03-23T02:56:37;4.33;;;2.63;;
12042;SDS011;6082;49.306;12.862;2023-03-23T02:59:04;3.20;;;2.63;;
12042;SDS011;6082;49.306;12.862;2023-03-23T03:04:16;3.77;;;2.43;;
12042;SDS011;6082;49.306;12.862;2023-03-23T03:06:53;3.80;;;2.77;;
12042;SDS011;6082;49.306;12.862;2023-03-23T03:09:27;3.77;;;2.40;;
12042;SDS011;6082;49.306;12.862;2023-03-23T03:11:56;4.10;;;2.70;;
12042;SDS011;6082;49.306;12.862;2023-03-23T03:14:24;4.50;;;2.60;;
12042;SDS011;6082;49.306;12.862;2023-03-23T03:16:54;3.60;;;2.53;;
12042;SDS011;6082;49.306;12.862;2023-03-23T03:19:23;3.90;;;2.33;;
12042;SDS011;6082;49.306;12.862;2023-03-23T03:21:50;3.13;;;2.67;;
12042;SDS011;6082;49.306;12.862;2023-03-23T03:24:18;3.53;;;2.70;;
12042;SDS011;6082;49.306;12.862;2023-03-23T03:26:45;4.93;;;2.33;;
12042;SDS011;6082;49.306;12.862;2023-03-23T03:29:13;5.27;;;2.70;;
12042;SDS011;6082;49.306;12.862;2023-03-23T03:31:39;3.53;;;2.63;;
12042;SDS011;6082;49.306;12.862;2023-03-23T03:34:10;3.50;;;2.50;;
12042;SDS011;6082;49.306;12.862;2023-03-23T03:36:36;2.93;;;2.50;;
12042;SDS011;6082;49.306;12.862;2023-03-23T03:39:04;4.00;;;2.50;;
12042;SDS011;6082;49.306;12.862;2023-03-23T03:41:32;4.90;;;3.00;;
12042;SDS011;6082;49.306;12.862;2023-03-23T03:43:58;3.87;;;2.53;;
12042;SDS011;6082;49.306;12.862;2023-03-23T03:46:25;5.20;;;2.70;;
12042;SDS011;6082;49.306;12.862;2023-03-23T03:48:54;4.60;;;2.73;;
12042;SDS011;6082;49.306;12.862;2023-03-23T03:51:22;3.87;;;2.80;;
12042;SDS011;6082;49.306;12.862;2023-03-23T03:53:48;5.03;;;2.90;;
12042;SDS011;6082;49.306;12.862;2023-03-23T03:56:14;3.77;;;2.50;;
12042;SDS011;6082;49.306;12.862;2023-03-23T03:58:40;3.83;;;2.47;;
12042;SDS011;6082;49.306;12.862;2023-03-23T04:01:08;4.47;;;2.90;;
12042;SDS011;6082;49.306;12.862;2023-03-23T04:03:38;4.40;;;2.73;;
12042;SDS011;6082;49.306;12.862;2023-03-23T04:06:05;4.37;;;2.63;;
12042;SDS011;6082;49.306;12.862;2023-03-23T04:08:33;5.30;;;3.07;;
12042;SDS011;6082;49.306;12.862;2023-03-23T04:10:59;2.57;;;2.20;;
12042;SDS011;6082;49.306;12.862;2023-03-23T04:13:26;3.50;;;2.60;;
12042;SDS011;6082;49.306;12.862;2023-03-23T04:15:52;5.83;;;3.07;;
12042;SDS011;6082;49.306;12.862;2023-03-23T04:18:18;4.00;;;2.77;;
12042;SDS011;6082;49.306;12.862;2023-03-23T04:20:46;4.97;;;3.20;;
12042;SDS011;6082;49.306;12.862;2023-03-23T04:23:14;3.60;;;2.80;;
12042;SDS011;6082;49.306;12.862;2023-03-23T04:25:45;3.80;;;2.73;;
12042;SDS011;6082;49.306;12.862;2023-03-23T04:28:12;4.00;;;2.53;;
12042;SDS011;6082;49.306;12.862;2023-03-23T04:30:38;3.70;;;3.00;;
12042;SDS011;6082;49.306;12.862;2023-03-23T04:33:08;4.17;;;2.87;;
12042;SDS011;6082;49.306;12.862;2023-03-23T04:35:39;4.23;;;2.60;;
12042;SDS011;6082;49.306;12.862;2023-03-23T04:38:06;4.07;;;3.27;;
12042;SDS011;6082;49.306;12.862;2023-03-23T04:40:37;4.90;;;3.20;;
12042;SDS011;6082;49.306;12.862;2023-03-23T04:43:04;5.77;;;2.90;;
12042;SDS011;6082;49.306;12.862;2023-03-23T04:45:31;5.23;;;3.10;;
12042;SDS011;6082;49.306;12.862;2023-03-23T04:47:57;4.43;;;3.00;;
12042;SDS011;6082;49.306;12.862;2023-03-23T04:50:25;3.43;;;2.50;;
12042;SDS011;6082;49.306;12.862;2023-03-23T04:52:52;3.57;;;2.80;;
12042;SDS011;6082;49.306;12.862;2023-03-23T04:55:21;4.10;;;2.90;;
12042;SDS011;6082;49.306;12.862;2023-03-23T04:57:48;3.40;;;2.60;;
12042;SDS011;6082;49.306;12.862;2023-03-23T05:00:14;6.63;;;3.67;;
12042;SDS011;6082;49.306;12.862;2023-03-23T05:02:41;6.40;;;3.03;;
12042;SDS011;6082;49.306;12.862;2023-03-23T05:05:08;4.30;;;2.73;;
12042;SDS011;6082;49.306;12.862;2023-03-23T05:07:36;3.33;;;2.43;;
12042;SDS011;6082;49.306;12.862;2023-03-23T05:10:02;5.00;;;3.00;;
12042;SDS011;6082;49.306;12.862;2023-03-23T05:12:28;4.07;;;2.53;;
12042;SDS011;6082;49.306;12.862;2023-03-23T05:14:54;3.43;;;2.00;;
12042;SDS011;6082;49.306;12.862;2023-03-23T05:17:21;3.17;;;2.30;;
12042;SDS011;6082;49.306;12.862;2023-03-23T05:19:49;4.40;;;2.30;;
12042;SDS011;6082;49.306;12.862;2023-03-23T05:22:15;3.70;;;2.53;;
12042;SDS011;6082;49.306;12.862;2023-03-23T05:24:42;2.80;;;2.20;;
12042;SDS011;6082;49.306;12.862;2023-03-23T05:27:11;4.67;;;2.30;;
12042;SDS011;6082;49.306;12.862;2023-03-23T05:29:37;2.77;;;2.30;;
12042;SDS011;6082;49.306;12.862;2023-03-23T05:32:08;4.87;;;3.00;;
12042;SDS011;6082;49.306;12.862;2023-03-23T05:34:35;3.90;;;2.77;;
12042;SDS011;6082;49.306;12.862;2023-03-23T05:37:02;4.90;;;3.00;;
12042;SDS011;6082;49.306;12.862;2023-03-23T05:39:29;3.87;;;2.97;;
12042;SDS011;6082;49.306;12.862;2023-03-23T05:41:56;3.57;;;3.00;;
12042;SDS011;6082;49.306;12.862;2023-03-23T05:44:23;4.70;;;3.27;;
12042;SDS011;6082;49.306;12.862;2023-03-23T05:46:49;5.00;;;2.63;;
12042;SDS011;6082;49.306;12.862;2023-03-23T05:49:15;3.80;;;2.60;;
12042;SDS011;6082;49.306;12.862;2023-03-23T05:51:42;3.37;;;2.40;;
12042;SDS011;6082;49.306;12.862;2023-03-23T05:54:09;3.03;;;2.50;;
12042;SDS011;6082;49.306;12.862;2023-03-23T05:56:36;3.43;;;2.30;;
12042;SDS011;6082;49.306;12.862;2023-03-23T05:59:02;3.27;;;2.50;;
12042;SDS011;6082;49.306;12.862;2023-03-23T06:01:28;3.47;;;2.00;;
12042;SDS011;6082;49.306;12.862;2023-03-23T06:03:54;3.57;;;2.67;;
12042;SDS011;6082;49.306;12.862;2023-03-23T06:06:23;4.50;;;2.47;;
12042;SDS011;6082;49.306;12.862;2023-03-23T06:08:49;4.93;;;2.30;;
12042;SDS011;6082;49.306;12.862;2023-03-23T06:11:16;3.13;;;2.17;;
12042;SDS011;6082;49.306;12.862;2023-03-23T06:13:42;4.30;;;2.53;;
12042;SDS011;6082;49.306;12.862;2023-03-23T06:16:09;3.03;;;2.23;;
12042;SDS011;6082;49.306;12.862;2023-03-23T06:18:35;3.40;;;2.60;;
12042;SDS011;6082;49.306;12.862;2023-03-23T06:21:06;4.77;;;2.27;;
12042;SDS011;6082;49.306;12.862;2023-03-23T06:23:33;3.33;;;2.23;;
12042;SDS011;6082;49.306;12.862;2023-03-23T06:26:00;5.00;;;2.27;;
12042;SDS011;6082;49.306;12.862;2023-03-23T06:28:27;4.03;;;2.60;;
12042;SDS011;6082;49.306;12.862;2023-03-23T06:30:54;3.20;;;2.70;;
12042;SDS011;6082;49.306;12.862;2023-03-23T06:33:20;3.00;;;2.17;;
12042;SDS011;6082;49.306;12.862;2023-03-23T06:35:46;3.93;;;2.67;;
12042;SDS011;6082;49.306;12.862;2023-03-23T06:38:13;5.00;;;2.67;;
12042;SDS011;6082;49.306;12.862;2023-03-23T06:40:40;4.07;;;2.70;;
12042;SDS011;6082;49.306;12.862;2023-03-23T06:43:11;3.27;;;2.53;;
12042;SDS011;6082;49.306;12.862;2023-03-23T06:45:37;4.03;;;2.53;;
12042;SDS011;6082;49.306;12.862;2023-03-23T06:48:03;5.33;;;3.20;;
12042;SDS011;6082;49.306;12.862;2023-03-23T06:50:29;3.90;;;2.40;;
12042;SDS011;6082;49.306;12.862;2023-03-23T06:52:55;3.30;;;2.80;;
12042;SDS011;6082;49.306;12.862;2023-03-23T06:55:22;5.00;;;2.93;;
12042;SDS011;6082;49.306;12.862;2023-03-23T06:57:48;4.20;;;2.80;;
12042;SDS011;6082;49.306;12.862;2023-03-23T07:00:14;3.23;;;2.13;;
12042;SDS011;6082;49.306;12.862;2023-03-23T07:02:41;4.97;;;2.67;;
12042;SDS011;6082;49.306;12.862;2023-03-23T07:05:07;5.17;;;2.70;;
12042;SDS011;6082;49.306;12.862;2023-03-23T07:07:34;5.33;;;2.60;;
12042;SDS011;6082;49.306;12.862;2023-03-23T07:10:00;4.53;;;2.63;;
12042;SDS011;6082;49.306;12.862;2023-03-23T07:12:27;4.87;;;3.00;;
12042;SDS011;6082;49.306;12.862;2023-03-23T07:14:54;4.87;;;2.93;;
12042;SDS011;6082;49.306;12.862;2023-03-23T07:17:20;5.27;;;3.13;;
12042;SDS011;6082;49.306;12.862;2023-03-23T07:19:46;4.50;;;3.10;;
12042;SDS011;6082;49.306;12.862;2023-03-23T07:22:12;4.70;;;3.20;;
12042;SDS011;6082;49.306;12.862;2023-03-23T07:24:38;4.30;;;2.97;;
12042;SDS011;6082;49.306;12.862;2023-03-23T07:27:04;5.53;;;3.27;;
12042;SDS011;6082;49.306;12.862;2023-03-23T07:29:31;4.53;;;3.17;;
12042;SDS011;6082;49.306;12.862;2023-03-23T07:32:00;4.20;;;2.77;;
12042;SDS011;6082;49.306;12.862;2023-03-23T07:34:26;5.27;;;3.07;;
12042;SDS011;6082;49.306;12.862;2023-03-23T07:36:53;5.87;;;3.00;;
12042;SDS011;6082;49.306;12.862;2023-03-23T07:39:19;5.67;;;3.27;;
12042;SDS011;6082;49.306;12.862;2023-03-23T07:41:45;5.03;;;3.43;;
12042;SDS011;6082;49.306;12.862;2023-03-23T07:44:11;5.20;;;3.30;;
12042;SDS011;6082;49.306;12.862;2023-03-23T07:46:37;4.67;;;2.70;;
12042;SDS011;6082;49.306;12.862;2023-03-23T07:49:03;4.53;;;3.07;;
12042;SDS011;6082;49.306;12.862;2023-03-23T07:51:31;5.10;;;3.00;;
12042;SDS011;6082;49.306;12.862;2023-03-23T07:53:57;6.13;;;3.23;;
12042;SDS011;6082;49.306;12.862;2023-03-23T07:56:23;7.00;;;3.00;;
12042;SDS011;6082;49.306;12.862;2023-03-23T07:58:50;4.43;;;2.80;;
12042;SDS011;6082;49.306;12.862;2023-03-23T08:01:16;4.43;;;3.07;;
12042;SDS011;6082;49.306;12.862;2023-03-23T08:03:43;6.30;;;3.40;;
12042;SDS011;6082;49.306;12.862;2023-03-23T08:06:09;5.33;;;3.23;;
12042;SDS011;6082;49.306;12.862;2023-03-23T08:08:35;6.43;;;3.60;;
12042;SDS011;6082;49.306;12.862;2023-03-23T08:11:02;3.63;;;3.00;;
12042;SDS011;6082;49.306;12.862;2023-03-23T08:13:28;4.93;;;2.70;;
12042;SDS011;6082;49.306;12.862;2023-03-23T08:15:54;3.50;;;2.77;;
12042;SDS011;6082;49.306;12.862;2023-03-23T08:18:21;4.33;;;2.63;;
12042;SDS011;6082;49.306;12.862;2023-03-23T08:20:48;4.80;;;2.50;;
12042;SDS011;6082;49.306;12.862;2023-03-23T08:23:14;4.17;;;2.27;;
12042;SDS011;6082;49.306;12.862;2023-03-23T08:25:41;3.23;;;2.20;;
12042;SDS011;6082;49.306;12.862;2023-03-23T08:28:11;3.30;;;2.40;;
12042;SDS011;6082;49.306;12.862;2023-03-23T08:30:39;5.10;;;2.10;;
12042;SDS011;6082;49.306;12.862;2023-03-23T08:33:05;3.70;;;2.20;;
12042;SDS011;6082;49.306;12.862;2023-03-23T08:35:31;3.90;;;2.33;;
12042;SDS011;6082;49.306;12.862;2023-03-23T08:37:58;4.33;;;2.83;;
12042;SDS011;6082;49.306;12.862;2023-03-23T08:40:24;4.70;;;2.90;;
12042;SDS011;6082;49.306;12.862;2023-03-23T08:42:51;4.37;;;3.03;;
12042;SDS011;6082;49.306;12.862;2023-03-23T08:45:19;4.67;;;2.90;;
12042;SDS011;6082;49.306;12.862;2023-03-23T08:47:46;3.90;;;2.50;;
12042;SDS011;6082;49.306;12.862;2023-03-23T08:50:17;3.53;;;2.63;;
12042;SDS011;6082;49.306;12.862;2023-03-23T08:52:43;3.97;;;2.90;;
12042;SDS011;6082;49.306;12.862;2023-03-23T08:55:09;3.43;;;2.30;;
12042;SDS011;6082;49.306;12.862;2023-03-23T08:57:36;4.53;;;2.70;;
12042;SDS011;6082;49.306;12.862;2023-03-23T09:00:03;4.73;;;2.80;;
12042;SDS011;6082;49.306;12.862;2023-03-23T09:02:38;4.10;;;2.53;;
12042;SDS011;6082;49.306;12.862;2023-03-23T09:05:04;4.40;;;2.60;;
12042;SDS011;6082;49.306;12.862;2023-03-23T09:07:31;4.73;;;3.00;;
12042;SDS011;6082;49.306;12.862;2023-03-23T09:09:58;2.87;;;2.20;;
12042;SDS011;6082;49.306;12.862;2023-03-23T09:12:24;3.83;;;2.73;;
12042;SDS011;6082;49.306;12.862;2023-03-23T09:14:51;3.83;;;2.40;;
12042;SDS011;6082;49.306;12.862;2023-03-23T09:17:17;4.80;;;2.60;;
12042;SDS011;6082;49.306;12.862;2023-03-23T09:19:43;2.90;;;2.53;;
12042;SDS011;6082;49.306;12.862;2023-03-23T09:22:09;4.00;;;2.77;;
12042;SDS011;6082;49.306;12.862;2023-03-23T09:24:35;3.70;;;2.63;;
12042;SDS011;6082;49.306;12.862;2023-03-23T09:27:02;3.37;;;2.67;;
12042;SDS011;6082;49.306;12.862;2023-03-23T09:29:28;4.13;;;2.53;;
12042;SDS011;6082;49.306;12.862;2023-03-23T09:31:55;3.33;;;2.30;;
12042;SDS011;6082;49.306;12.862;2023-03-23T09:34:21;4.47;;;2.70;;
12042;SDS011;6082;49.306;12.862;2023-03-23T09:36:48;3.47;;;2.40;;
12042;SDS011;6082;49.306;12.862;2023-03-23T09:39:14;2.93;;;2.20;;
12042;SDS011;6082;49.306;12.862;2023-03-23T09:44:41;3.37;;;2.20;;
12042;SDS011;6082;49.306;12.862;2023-03-23T09:49:45;3.90;;;2.50;;
12042;SDS011;6082;49.306;12.862;2023-03-23T09:52:16;2.67;;;1.90;;
12042;SDS011;6082;49.306;12.862;2023-03-23T09:54:43;3.27;;;2.40;;
12042;SDS011;6082;49.306;12.862;2023-03-23T09:57:28;3.37;;;2.60;;
12042;SDS011;6082;49.306;12.862;2023-03-23T10:00:16;2.73;;;2.30;;
12042;SDS011;6082;49.306;12.862;2023-03-23T10:02:59;3.50;;;2.20;;
12042;SDS011;6082;49.306;12.862;2023-03-23T10:05:30;3.03;;;2.20;;
12042;SDS011;6082;49.306;12.862;2023-03-23T10:07:57;2.90;;;1.77;;
12042;SDS011;6082;49.306;12.862;2023-03-23T10:10:26;3.37;;;2.00;;
12042;SDS011;6082;49.306;12.862;2023-03-23T10:12:56;2.67;;;2.30;;
12042;SDS011;6082;49.306;12.862;2023-03-23T10:15:29;3.83;;;3.03;;
12042;SDS011;6082;49.306;12.862;2023-03-23T10:25:32;3.87;;;2.53;;
12042;SDS011;6082;49.306;12.862;2023-03-23T10:30:48;5.17;;;3.20;;
12042;SDS011;6082;49.306;12.862;2023-03-23T10:33:20;3.97;;;2.40;;
12042;SDS011;6082;49.306;12.862;2023-03-23T10:38:45;4.37;;;3.00;;
12042;SDS011;6082;49.306;12.862;2023-03-23T10:41:12;4.37;;;2.90;;
12042;SDS011;6082;49.306;12.862;2023-03-23T10:43:39;4.40;;;3.07;;
12042;SDS011;6082;49.306;12.862;2023-03-23T10:48:53;3.60;;;2.83;;
12042;SDS011;6082;49.306;12.862;2023-03-23T10:51:22;4.13;;;3.17;;
12042;SDS011;6082;49.306;12.862;2023-03-23T10:53:51;5.43;;;3.47;;
12042;SDS011;6082;49.306;12.862;2023-03-23T10:56:25;4.17;;;3.00;;
12042;SDS011;6082;49.306;12.862;2023-03-23T10:58:52;5.67;;;3.07;;
12042;SDS011;6082;49.306;12.862;2023-03-23T11:01:20;4.43;;;2.77;;
12042;SDS011;6082;49.306;12.862;2023-03-23T11:03:53;3.43;;;2.60;;
12042;SDS011;6082;49.306;12.862;2023-03-23T11:06:30;3.37;;;2.77;;
12042;SDS011;6082;49.306;12.862;2023-03-23T11:09:09;4.50;;;3.30;;
12042;SDS011;6082;49.306;12.862;2023-03-23T11:11:37;4.50;;;2.70;;
12042;SDS011;6082;49.306;12.862;2023-03-23T11:14:18;4.27;;;2.77;;
12042;SDS011;6082;49.306;12.862;2023-03-23T11:16:54;7.17;;;3.60;;
12042;SDS011;6082;49.306;12.862;2023-03-23T11:19:24;4.10;;;2.70;;
12042;SDS011;6082;49.306;12.862;2023-03-23T11:21:57;5.80;;;3.40;;
12042;SDS011;6082;49.306;12.862;2023-03-23T11:24:24;6.87;;;3.20;;
12042;SDS011;6082;49.306;12.862;2023-03-23T11:26:51;5.10;;;2.90;;
12042;SDS011;6082;49.306;12.862;2023-03-23T11:29:20;3.70;;;2.90;;
12042;SDS011;6082;49.306;12.862;2023-03-23T11:31:48;4.80;;;3.33;;
12042;SDS011;6082;49.306;12.862;2023-03-23T11:34:21;3.47;;;2.50;;
12042;SDS011;6082;49.306;12.862;2023-03-23T11:37:09;5.70;;;3.40;;
12042;SDS011;6082;49.306;12.862;2023-03-23T11:39:56;7.33;;;5.03;;
12042;SDS011;6082;49.306;12.862;2023-03-23T11:42:22;8.07;;;5.07;;
12042;SDS011;6082;49.306;12.862;2023-03-23T11:44:52;5.83;;;4.10;;
12042;SDS011;6082;49.306;12.862;2023-03-23T11:49:54;3.83;;;2.93;;
12042;SDS011;6082;49.306;12.862;2023-03-23T11:54:53;3.40;;;2.47;;
12042;SDS011;6082;49.306;12.862;2023-03-23T11:57:20;3.90;;;2.70;;
12042;SDS011;6082;49.306;12.862;2023-03-23T11:59:46;3.30;;;2.60;;
12042;SDS011;6082;49.306;12.862;2023-03-23T12:10:15;4.30;;;2.23;;
12042;SDS011;6082;49.306;12.862;2023-03-23T12:15:30;3.50;;;2.63;;
12042;SDS011;6082;49.306;12.862;2023-03-23T12:20:44;3.13;;;2.60;;
12042;SDS011;6082;49.306;12.862;2023-03-23T12:25:43;3.90;;;3.30;;
12042;SDS011;6082;49.306;12.862;2023-03-23T12:38:40;4.23;;;3.10;;
12042;SDS011;6082;49.306;12.862;2023-03-23T12:43:45;4.37;;;2.90;;
12042;SDS011;6082;49.306;12.862;2023-03-23T12:46:15;3.73;;;2.60;;
12042;SDS011;6082;49.306;12.862;2023-03-23T12:48:43;3.80;;;2.20;;
12042;SDS011;6082;49.306;12.862;2023-03-23T12:51:12;2.67;;;2.30;;
12042;SDS011;6082;49.306;12.862;2023-03-23T12:58:40;3.97;;;2.20;;
12042;SDS011;6082;49.306;12.862;2023-03-23T13:04:05;5.10;;;2.47;;
12042;SDS011;6082;49.306;12.862;2023-03-23T13:09:01;3.17;;;2.10;;
12042;SDS011;6082;49.306;12.862;2023-03-23T13:11:33;3.53;;;2.03;;
12042;SDS011;6082;49.306;12.862;2023-03-23T13:14:10;4.70;;;2.33;;
12042;SDS011;6082;49.306;12.862;2023-03-23T13:16:41;2.70;;;1.97;;
12042;SDS011;6082;49.306;12.862;2023-03-23T13:19:16;2.23;;;2.00;;
12042;SDS011;6082;49.306;12.862;2023-03-23T13:21:45;2.63;;;2.10;;
12042;SDS011;6082;49.306;12.862;2023-03-23T13:24:19;2.00;;;1.60;;
12042;SDS011;6082;49.306;12.862;2023-03-23T13:26:48;2.50;;;1.70;;
12042;SDS011;6082;49.306;12.862;2023-03-23T13:29:16;3.67;;;1.90;;
12042;SDS011;6082;49.306;12.862;2023-03-23T13:31:44;1.90;;;1.60;;
12042;SDS011;6082;49.306;12.862;2023-03-23T13:36:51;2.37;;;1.63;;
12042;SDS011;6082;49.306;12.862;2023-03-23T13:39:20;2.67;;;1.87;;
12042;SDS011;6082;49.306;12.862;2023-03-23T13:41:58;3.43;;;1.80;;
12042;SDS011;6082;49.306;12.862;2023-03-23T13:44:25;2.63;;;1.73;;
12042;SDS011;6082;49.306;12.862;2023-03-23T13:47:35;2.07;;;1.70;;
12042;SDS011;6082;49.306;12.862;2023-03-23T13:52:37;3.23;;;2.20;;
12042;SDS011;6082;49.306;12.862;2023-03-23T13:57:57;2.33;;;1.60;;
12042;SDS011;6082;49.306;12.862;2023-03-23T14:00:36;1.40;;;1.30;;
12042;SDS011;6082;49.306;12.862;2023-03-23T14:03:05;2.37;;;1.43;;
12042;SDS011;6082;49.306;12.862;2023-03-23T14:05:35;2.67;;;1.53;;
12042;SDS011;6082;49.306;12.862;2023-03-23T14:13:17;1.43;;;1.20;;
12042;SDS011;6082;49.306;12.862;2023-03-23T14:15:44;1.77;;;1.33;;
12042;SDS011;6082;49.306;12.862;2023-03-23T14:18:15;2.43;;;1.40;;
12042;SDS011;6082;49.306;12.862;2023-03-23T14:20:42;3.10;;;1.47;;
12042;SDS011;6082;49.306;12.862;2023-03-23T14:23:15;1.93;;;1.43;;
12042;SDS011;6082;49.306;12.862;2023-03-23T14:25:53;1.53;;;1.20;;
12042;SDS011;6082;49.306;12.862;2023-03-23T14:28:20;1.67;;;1.30;;
12042;SDS011;6082;49.306;12.862;2023-03-23T14:30:47;4.03;;;1.50;;
12042;SDS011;6082;49.306;12.862;2023-03-23T14:33:15;1.50;;;1.33;;
12042;SDS011;6082;49.306;12.862;2023-03-23T14:35:41;2.50;;;1.70;;
12042;SDS011;6082;49.306;12.862;2023-03-23T14:38:12;1.23;;;1.10;;
12042;SDS011;6082;49.306;12.862;2023-03-23T14:40:43;2.27;;;1.50;;
12042;SDS011;6082;49.306;12.862;2023-03-23T14:43:10;2.60;;;1.67;;
12042;SDS011;6082;49.306;12.862;2023-03-23T14:45:40;2.73;;;1.50;;
12042;SDS011;6082;49.306;12.862;2023-03-23T14:48:06;1.97;;;1.43;;
12042;SDS011;6082;49.306;12.862;2023-03-23T14:53:24;4.40;;;3.03;;
12042;SDS011;6082;49.306;12.862;2023-03-23T14:55:49;3.20;;;2.30;;
12042;SDS011;6082;49.306;12.862;2023-03-23T14:58:17;3.93;;;2.67;;
12042;SDS011;6082;49.306;12.862;2023-03-23T15:00:45;3.03;;;1.90;;
12042;SDS011;6082;49.306;12.862;2023-03-23T15:03:13;2.13;;;1.93;;
12042;SDS011;6082;49.306;12.862;2023-03-23T15:05:45;2.10;;;1.80;;
12042;SDS011;6082;49.306;12.862;2023-03-23T15:08:14;4.63;;;1.83;;
12042;SDS011;6082;49.306;12.862;2023-03-23T15:10:41;1.87;;;1.60;;
12042;SDS011;6082;49.306;12.862;2023-03-23T15:13:09;2.73;;;1.87;;
12042;SDS011;6082;49.306;12.862;2023-03-23T15:15:36;2.00;;;1.70;;
12042;SDS011;6082;49.306;12.862;2023-03-23T15:18:03;3.03;;;1.70;;
12042;SDS011;6082;49.306;12.862;2023-03-23T15:23:08;2.23;;;1.63;;
12042;SDS011;6082;49.306;12.862;2023-03-23T15:25:39;2.80;;;1.60;;
12042;SDS011;6082;49.306;12.862;2023-03-23T15:28:17;2.27;;;1.60;;
12042;SDS011;6082;49.306;12.862;2023-03-23T15:30:47;1.83;;;1.60;;
12042;SDS011;6082;49.306;12.862;2023-03-23T15:33:14;2.03;;;1.63;;
12042;SDS011;6082;49.306;12.862;2023-03-23T15:35:45;2.77;;;1.60;;
12042;SDS011;6082;49.306;12.862;2023-03-23T15:38:15;1.93;;;1.73;;
12042;SDS011;6082;49.306;12.862;2023-03-23T15:40:43;2.47;;;1.73;;
12042;SDS011;6082;49.306;12.862;2023-03-23T15:45:50;2.40;;;1.43;;
12042;SDS011;6082;49.306;12.862;2023-03-23T15:48:16;3.20;;;1.60;;
12042;SDS011;6082;49.306;12.862;2023-03-23T15:50:46;3.17;;;1.40;;
12042;SDS011;6082;49.306;12.862;2023-03-23T15:53:30;2.37;;;1.70;;
12042;SDS011;6082;49.306;12.862;2023-03-23T15:55:58;1.83;;;1.57;;
12042;SDS011;6082;49.306;12.862;2023-03-23T15:58:24;5.23;;;1.80;;
12042;SDS011;6082;49.306;12.862;2023-03-23T16:00:51;2.27;;;1.80;;
12042;SDS011;6082;49.306;12.862;2023-03-23T16:03:33;1.93;;;1.47;;
12042;SDS011;6082;49.306;12.862;2023-03-23T16:06:00;2.40;;;1.80;;
12042;SDS011;6082;49.306;12.862;2023-03-23T16:08:27;3.97;;;2.13;;
12042;SDS011;6082;49.306;12.862;2023-03-23T16:10:53;2.57;;;1.97;;
12042;SDS011;6082;49.306;12.862;2023-03-23T16:13:19;2.07;;;1.73;;
12042;SDS011;6082;49.306;12.862;2023-03-23T16:15:46;3.23;;;1.40;;
12042;SDS011;6082;49.306;12.862;2023-03-23T16:18:16;3.47;;;1.90;;
12042;SDS011;6082;49.306;12.862;2023-03-23T16:20:43;2.30;;;1.73;;
12042;SDS011;6082;49.306;12.862;2023-03-23T16:23:09;1.77;;;1.43;;
12042;SDS011;6082;49.306;12.862;2023-03-23T16:25:35;2.07;;;1.50;;
12042;SDS011;6082;49.306;12.862;2023-03-23T16:28:01;2.33;;;1.63;;
12042;SDS011;6082;49.306;12.862;2023-03-23T16:30:28;2.63;;;1.60;;
12042;SDS011;6082;49.306;12.862;2023-03-23T16:32:57;2.63;;;1.80;;
12042;SDS011;6082;49.306;12.862;2023-03-23T16:35:23;2.37;;;1.80;;
12042;SDS011;6082;49.306;12.862;2023-03-23T16:37:51;2.33;;;1.70;;